createdAt,value
2019-04-10T00:02:46.383Z,25.30
2019-04-10T00:05:50.339Z,25.27
2019-04-10T00:08:54.843Z,29.93
2019-04-10T00:11:59.403Z,29.20
2019-04-10T00:15:03.278Z,29.00
2019-04-10T00:18:07.479Z,30.67
2019-04-10T00:21:11.567Z,34.20
2019-04-10T00:24:15.746Z,36.27
2019-04-10T00:27:20.709Z,37.00
2019-04-10T00:30:25.131Z,39.70
2019-04-10T00:33:29.131Z,44.30
2019-04-10T00:36:33.271Z,44.57
2019-04-10T00:39:37.772Z,46.50
2019-04-10T00:42:41.641Z,45.63
2019-04-10T00:45:46.007Z,47.27
2019-04-10T00:48:50.280Z,49.03
2019-04-10T00:51:55.368Z,48.20
2019-04-10T00:54:59.477Z,50.17
2019-04-10T00:58:03.671Z,47.27
2019-04-10T01:01:07.886Z,50.47
2019-04-10T01:04:12.424Z,51.33
2019-04-10T01:07:16.874Z,50.77
2019-04-10T01:10:21.988Z,48.77
2019-04-10T01:13:27.111Z,50.87
2019-04-10T01:16:31.429Z,49.40
2019-04-10T01:19:36.427Z,51.53
2019-04-10T01:22:41.494Z,48.37
2019-04-10T01:25:46.453Z,49.13
2019-04-10T01:28:51.282Z,47.10
2019-04-10T01:31:55.351Z,52.40
2019-04-10T01:35:00.149Z,49.13
2019-04-10T01:38:06.129Z,49.80
2019-04-10T01:41:11.875Z,48.00
2019-04-10T01:44:15.696Z,44.57
2019-04-10T01:47:19.929Z,49.13
2019-04-10T01:50:24.427Z,50.27
2019-04-10T01:53:28.329Z,50.07
2019-04-10T01:56:34.752Z,49.30
2019-04-10T01:59:42.421Z,46.40
2019-04-10T02:02:51.785Z,47.17
2019-04-10T02:05:56.750Z,46.30
2019-04-10T02:09:00.654Z,47.97
2019-04-10T02:12:06.205Z,47.27
2019-04-10T02:15:13.939Z,46.17
2019-04-10T02:18:17.252Z,48.07
2019-04-10T02:21:21.215Z,48.70
2019-04-10T02:24:25.366Z,47.00
2019-04-10T02:27:30.111Z,49.47
2019-04-10T02:30:36.327Z,48.03
2019-04-10T02:33:41.206Z,47.47
2019-04-10T02:36:46.542Z,45.70
2019-04-10T02:39:56.097Z,46.20
2019-04-10T02:42:59.127Z,46.53
2019-04-10T02:46:04.048Z,49.83
2019-04-10T02:49:09.074Z,47.73
2019-04-10T02:52:14.671Z,48.43
2019-04-10T02:55:18.900Z,48.87
2019-04-10T02:58:24.662Z,46.13
2019-04-10T03:01:29.019Z,49.97
2019-04-10T03:04:35.076Z,49.93
2019-04-10T03:07:40.327Z,49.63
2019-04-10T03:10:50.615Z,47.00
2019-04-10T03:13:51.208Z,47.87
2019-04-10T03:16:55.514Z,45.67
2019-04-10T03:20:00.215Z,48.10
2019-04-10T03:23:05.246Z,45.47
2019-04-10T03:26:09.713Z,43.70
2019-04-10T03:29:13.847Z,45.87
2019-04-10T03:32:38.852Z,45.47
2019-04-10T03:35:49.572Z,47.00
2019-04-10T03:39:00.084Z,48.70
2019-04-10T03:41:58.952Z,46.57
2019-04-10T03:45:03.310Z,46.40
2019-04-10T03:48:08.425Z,49.13
2019-04-10T03:51:12.659Z,49.57
2019-04-10T03:54:16.607Z,49.00
2019-04-10T03:57:23.195Z,48.63
2019-04-10T04:00:27.883Z,50.07
2019-04-10T04:03:32.956Z,49.83
2019-04-10T04:06:37.126Z,49.50
2019-04-10T04:09:41.857Z,49.30
2019-04-10T04:12:46.766Z,48.10
2019-04-10T04:15:51.198Z,46.83
2019-04-10T04:18:55.586Z,49.13
2019-04-10T04:22:00.613Z,51.17
2019-04-10T04:25:05.184Z,50.87
2019-04-10T04:28:09.300Z,51.27
2019-04-10T04:31:13.220Z,51.47
2019-04-10T04:34:18.431Z,49.13
2019-04-10T04:37:22.866Z,47.27
2019-04-10T04:40:27.849Z,50.97
2019-04-10T04:43:32.771Z,48.67
2019-04-10T04:46:36.678Z,51.33
2019-04-10T04:49:40.566Z,49.70
2019-04-10T04:52:45.668Z,50.70
2019-04-10T04:55:49.509Z,49.37
2019-04-10T04:58:53.898Z,50.03
2019-04-10T05:01:58.132Z,49.83
2019-04-10T05:05:02.510Z,46.43
2019-04-10T05:08:07.335Z,50.13
2019-04-10T05:11:12.481Z,50.40
2019-04-10T05:14:17.499Z,51.37
2019-04-10T05:17:22.224Z,49.37
2019-04-10T05:20:40.270Z,50.33
2019-04-10T05:23:33.098Z,52.03
2019-04-10T05:26:37.433Z,49.00
2019-04-10T05:29:41.229Z,51.33
2019-04-10T05:32:45.603Z,51.93
2019-04-10T05:35:49.483Z,50.67
2019-04-10T05:38:54.387Z,50.50
2019-04-10T05:42:00.685Z,50.30
2019-04-10T05:45:04.978Z,50.80
2019-04-10T05:48:08.918Z,50.67
2019-04-10T05:51:12.842Z,48.70
2019-04-10T05:54:17.165Z,50.37
2019-04-10T05:57:21.710Z,47.90
2019-04-10T06:00:25.711Z,50.50
2019-04-10T06:03:30.318Z,51.13
2019-04-10T06:06:34.678Z,51.73
2019-04-10T06:09:38.794Z,50.77
2019-04-10T06:12:43.302Z,50.67
2019-04-10T06:15:47.526Z,49.07
2019-04-10T06:18:53.556Z,46.87
2019-04-10T06:21:57.629Z,47.07
2019-04-10T06:25:03.664Z,48.97
2019-04-10T06:28:07.408Z,50.23
2019-04-10T06:31:12.602Z,48.00
2019-04-10T06:34:18.590Z,49.33
2019-04-10T06:37:22.201Z,46.67
2019-04-10T06:40:27.989Z,45.80
2019-04-10T06:43:32.974Z,46.47
2019-04-10T06:46:38.915Z,45.33
2019-04-10T06:49:43.375Z,45.90
2019-04-10T06:52:47.259Z,46.60
2019-04-10T06:55:52.355Z,46.90
2019-04-10T06:58:56.328Z,45.03
2019-04-10T07:02:13.608Z,44.47
2019-04-10T07:05:09.283Z,43.13
2019-04-10T07:08:17.219Z,40.57
2019-04-10T07:11:19.927Z,42.20
2019-04-10T07:14:24.597Z,42.77
2019-04-10T07:17:29.211Z,46.47
2019-04-10T07:20:33.706Z,44.27
2019-04-10T07:23:38.709Z,38.87
2019-04-10T07:26:46.306Z,38.50
2019-04-10T07:29:52.309Z,41.70
2019-04-10T07:32:55.138Z,38.73
2019-04-10T07:35:59.392Z,39.43
2019-04-10T07:39:05.496Z,40.13
2019-04-10T07:42:09.988Z,36.33
2019-04-10T07:45:14.445Z,36.47
2019-04-10T07:48:18.532Z,37.83
2019-04-10T07:51:22.331Z,39.13
2019-04-10T07:54:26.856Z,40.40
2019-04-10T07:57:31.278Z,40.67
2019-04-10T08:00:36.563Z,39.50
2019-04-10T08:03:41.625Z,36.67
2019-04-10T08:06:46.763Z,37.97
2019-04-10T08:09:51.888Z,40.20
2019-04-10T08:12:56.206Z,41.50
2019-04-10T08:16:00.892Z,40.83
2019-04-10T08:19:06.170Z,38.97
2019-04-10T08:22:12.131Z,38.67
2019-04-10T08:25:16.368Z,37.53
2019-04-10T08:28:20.538Z,38.13
2019-04-10T08:31:25.325Z,29.67
2019-04-10T08:34:29.764Z,27.20
2019-04-10T08:37:34.718Z,24.43
2019-04-10T08:40:38.609Z,26.00
2019-04-10T08:43:44.010Z,26.53
2019-04-10T08:46:48.299Z,24.60
2019-04-10T08:49:52.851Z,25.40
2019-04-10T08:52:57.911Z,24.27
2019-04-10T08:56:02.466Z,25.43
2019-04-10T08:59:07.578Z,24.70
2019-04-10T09:02:11.957Z,23.17
2019-04-10T09:05:17.439Z,25.00
2019-04-10T09:08:21.365Z,23.77
2019-04-10T09:11:28.429Z,22.20
2019-04-10T09:14:31.348Z,22.67
2019-04-10T09:17:35.658Z,22.87
2019-04-10T09:20:40.578Z,23.27
2019-04-10T09:23:51.622Z,22.40
2019-04-10T09:26:50.816Z,22.60
2019-04-10T09:29:56.355Z,22.23
2019-04-10T09:33:01.692Z,22.20
2019-04-10T09:36:06.289Z,21.57
2019-04-10T09:39:11.586Z,24.70
2019-04-10T09:42:15.664Z,22.13
2019-04-10T09:45:19.979Z,20.47
2019-04-10T09:48:24.262Z,22.37
2019-04-10T09:51:29.699Z,21.13
2019-04-10T09:54:34.867Z,20.73
2019-04-10T09:57:39.194Z,21.60
2019-04-10T10:00:43.783Z,21.50
2019-04-10T10:03:48.719Z,21.93
2019-04-10T10:06:53.548Z,21.80
2019-04-10T10:09:59.693Z,20.83
2019-04-10T10:13:03.339Z,20.77
2019-04-10T10:16:08.519Z,21.63
2019-04-10T10:19:12.525Z,21.53
2019-04-10T10:22:16.874Z,21.30
2019-04-10T10:25:21.528Z,20.17
2019-04-10T10:28:27.010Z,22.20
2019-04-10T10:31:30.905Z,22.93
2019-04-10T10:34:35.065Z,21.57
2019-04-10T10:37:38.991Z,23.47
2019-04-10T10:40:43.700Z,23.40
2019-04-10T10:43:47.441Z,24.00
2019-04-10T10:46:51.893Z,24.03
2019-04-10T10:49:56.959Z,23.57
2019-04-10T10:53:01.478Z,23.50
2019-04-10T10:56:06.370Z,22.23
2019-04-10T10:59:13.425Z,21.60
2019-04-10T11:02:17.882Z,21.67
2019-04-10T11:05:23.173Z,21.73
2019-04-10T11:08:27.720Z,21.27
2019-04-10T11:11:32.650Z,20.17
2019-04-10T11:14:37.226Z,21.87
2019-04-10T11:17:42.168Z,20.90
2019-04-10T11:20:46.602Z,19.97
2019-04-10T11:23:50.881Z,20.77
2019-04-10T11:26:55.249Z,19.13
2019-04-10T11:30:00.840Z,20.33
2019-04-10T11:33:04.769Z,20.13
2019-04-10T11:36:09.832Z,21.37
2019-04-10T11:39:22.099Z,21.30
2019-04-10T11:42:21.221Z,20.13
2019-04-10T11:45:28.751Z,20.77
2019-04-10T11:48:32.301Z,19.77
2019-04-10T11:51:38.749Z,20.17
2019-04-10T11:54:44.943Z,18.57
2019-04-10T11:57:50.958Z,18.77
2019-04-10T12:00:56.428Z,16.83
2019-04-10T12:04:00.465Z,18.70
2019-04-10T12:07:06.020Z,18.97
2019-04-10T12:13:18.000Z,17.60
2019-04-10T12:16:23.143Z,17.23
2019-04-10T12:19:27.348Z,17.93
2019-04-10T12:22:31.732Z,15.37
2019-04-10T12:25:36.581Z,15.27
2019-04-10T12:28:40.550Z,14.30
2019-04-10T12:31:45.268Z,12.20
2019-04-10T12:34:49.267Z,12.27
2019-04-10T12:38:02.242Z,11.93
2019-04-10T12:40:59.712Z,12.80
2019-04-10T12:44:03.733Z,12.60
2019-04-10T12:47:13.415Z,12.87
2019-04-10T12:50:18.352Z,12.93
2019-04-10T12:53:23.311Z,13.13
2019-04-10T12:56:28.333Z,13.67
2019-04-10T12:59:33.195Z,13.80
2019-04-10T13:02:38.379Z,15.43
2019-04-10T13:05:43.028Z,14.67
2019-04-10T13:08:57.801Z,13.83
2019-04-10T13:11:53.155Z,14.40
2019-04-10T13:14:57.231Z,13.10
2019-04-10T13:18:01.913Z,13.03
2019-04-10T13:21:06.377Z,13.30
2019-04-10T13:24:11.568Z,12.63
2019-04-10T13:27:15.412Z,12.53
2019-04-10T13:30:20.543Z,12.37
2019-04-10T13:33:24.931Z,11.83
2019-04-10T13:36:29.365Z,11.30
2019-04-10T13:39:33.463Z,11.30
2019-04-10T13:42:37.566Z,11.30
2019-04-10T13:45:41.630Z,12.00
2019-04-10T13:48:45.872Z,11.43
2019-04-10T13:51:51.823Z,11.63
2019-04-10T13:54:56.002Z,11.57
2019-04-10T13:58:00.108Z,12.10
2019-04-10T14:01:07.218Z,11.87
2019-04-10T14:04:11.548Z,11.90
2019-04-10T14:07:16.115Z,11.90
2019-04-10T14:10:20.939Z,11.63
2019-04-10T14:13:25.038Z,12.03
2019-04-10T14:16:30.810Z,12.93
2019-04-10T14:19:35.217Z,13.30
2019-04-10T14:22:46.660Z,14.07
2019-04-10T14:25:56.689Z,13.27
2019-04-10T14:29:01.636Z,13.37
2019-04-10T14:32:09.221Z,13.10
2019-04-10T14:35:13.462Z,13.37
2019-04-10T14:38:17.255Z,13.07
2019-04-10T14:41:22.097Z,14.10
2019-04-10T14:44:27.000Z,12.87
2019-04-10T14:47:31.856Z,12.43
2019-04-10T14:50:35.798Z,13.80
2019-04-10T14:53:39.627Z,13.90
2019-04-10T14:56:44.376Z,13.70
2019-04-10T14:59:49.309Z,15.00
2019-04-10T15:02:53.524Z,17.13
2019-04-10T15:06:01.082Z,17.87
2019-04-10T15:09:18.726Z,17.47
2019-04-10T15:12:14.390Z,16.57
2019-04-10T15:15:18.653Z,18.70
2019-04-10T15:18:22.567Z,17.83
2019-04-10T15:21:27.025Z,17.83
2019-04-10T15:24:31.226Z,18.67
2019-04-10T15:27:35.517Z,17.97
2019-04-10T15:30:39.741Z,17.97
2019-04-10T15:33:44.493Z,17.27
2019-04-10T15:36:52.773Z,17.73
2019-04-10T15:39:56.721Z,17.63
2019-04-10T15:43:00.813Z,17.10
2019-04-10T15:46:04.723Z,16.13
2019-04-10T15:49:09.150Z,16.67
2019-04-10T15:52:14.276Z,16.60
2019-04-10T15:55:18.265Z,17.53
2019-04-10T15:58:23.447Z,15.83
2019-04-10T16:01:28.501Z,16.13
2019-04-10T16:04:33.730Z,16.47
2019-04-10T16:07:38.355Z,17.37
2019-04-10T16:10:57.235Z,16.40
2019-04-10T16:14:04.212Z,17.73
2019-04-10T16:17:22.266Z,16.77
2019-04-10T16:20:31.016Z,16.73
2019-04-10T16:23:40.703Z,17.37
2019-04-10T16:26:44.907Z,16.43
2019-04-10T16:29:48.993Z,16.13
2019-04-10T16:32:52.829Z,16.40
2019-04-10T16:35:56.981Z,16.60
2019-04-10T16:39:01.443Z,16.50
2019-04-10T16:42:06.511Z,15.60
2019-04-10T16:45:10.697Z,16.63
2019-04-10T16:48:15.062Z,16.17
2019-04-10T16:51:20.435Z,15.93
2019-04-10T16:54:25.030Z,15.43
2019-04-10T16:57:29.259Z,16.47
2019-04-10T17:00:34.020Z,14.50
2019-04-10T17:03:38.045Z,15.13
2019-04-10T17:06:42.379Z,15.30
2019-04-10T17:09:47.262Z,15.23
2019-04-10T17:12:51.905Z,13.90
2019-04-10T17:15:56.068Z,14.57
2019-04-10T17:18:59.912Z,14.73
2019-04-10T17:22:04.769Z,14.40
2019-04-10T17:25:09.658Z,15.83
2019-04-10T17:28:14.313Z,15.73
2019-04-10T17:31:18.577Z,14.43
2019-04-10T17:34:22.930Z,14.83
2019-04-10T17:37:27.498Z,13.93
2019-04-10T17:40:40.669Z,13.90
2019-04-10T17:43:37.614Z,13.93
2019-04-10T17:46:42.068Z,13.47
2019-04-10T17:49:47.700Z,15.03
2019-04-10T17:52:53.366Z,14.37
2019-04-10T17:55:58.049Z,14.03
2019-04-10T17:59:02.374Z,12.70
2019-04-10T18:02:09.695Z,13.17
2019-04-10T18:05:14.817Z,13.07
2019-04-10T18:08:18.976Z,14.03
2019-04-10T18:11:23.220Z,14.43
2019-04-10T18:14:27.085Z,13.67
2019-04-10T18:17:31.218Z,13.33
2019-04-10T18:20:35.935Z,12.23
2019-04-10T18:23:40.053Z,12.20
2019-04-10T18:26:43.982Z,11.87
2019-04-10T18:29:48.139Z,12.03
2019-04-10T18:32:51.997Z,12.80
2019-04-10T18:35:57.326Z,13.00
2019-04-10T18:39:01.811Z,12.53
2019-04-10T18:42:07.576Z,12.30
2019-04-10T18:45:11.858Z,11.47
2019-04-10T18:48:16.636Z,11.03
2019-04-10T18:51:21.513Z,10.77
2019-04-10T18:54:25.348Z,10.33
2019-04-10T18:57:32.434Z,11.47
2019-04-10T19:01:07.140Z,11.53
2019-04-10T19:04:18.312Z,11.57
2019-04-10T19:07:22.903Z,12.13
2019-04-10T19:10:26.832Z,12.50
2019-04-10T19:13:30.766Z,12.47
2019-04-10T19:16:35.214Z,12.40
2019-04-10T19:19:42.146Z,12.80
2019-04-10T19:22:44.802Z,12.23
2019-04-10T19:25:49.208Z,11.40
2019-04-10T19:28:53.593Z,12.10
2019-04-10T19:32:00.494Z,12.73
2019-04-10T19:35:06.907Z,13.10
2019-04-10T19:38:11.448Z,11.73
2019-04-10T19:41:25.045Z,12.73
2019-04-10T19:44:21.205Z,12.50
2019-04-10T19:47:26.255Z,11.93
2019-04-10T19:50:30.255Z,12.17
2019-04-10T19:53:35.287Z,12.50
2019-04-10T19:56:40.395Z,11.97
2019-04-10T19:59:46.003Z,12.63
2019-04-10T20:02:50.996Z,12.53
2019-04-10T20:05:55.635Z,12.00
2019-04-10T20:09:00.115Z,12.30
2019-04-10T20:12:04.415Z,12.17
2019-04-10T20:15:08.561Z,12.07
2019-04-10T20:18:12.733Z,12.13
2019-04-10T20:21:17.571Z,11.80
2019-04-10T20:24:21.493Z,11.37
2019-04-10T20:27:25.644Z,12.00
2019-04-10T20:30:31.211Z,12.00
2019-04-10T20:33:35.396Z,11.00
2019-04-10T20:36:40.137Z,12.37
2019-04-10T20:39:45.342Z,10.97
2019-04-10T20:42:50.758Z,11.30
2019-04-10T20:45:55.925Z,11.13
2019-04-10T20:49:00.602Z,10.53
2019-04-10T20:52:04.667Z,11.53
2019-04-10T20:55:09.118Z,10.80
2019-04-10T20:58:13.387Z,11.40
2019-04-10T21:01:17.355Z,11.13
2019-04-10T21:04:23.523Z,11.27
2019-04-10T21:07:27.999Z,11.27
2019-04-10T21:10:31.909Z,11.40
2019-04-10T21:13:35.979Z,12.30
2019-04-10T21:16:40.199Z,12.27
2019-04-10T21:19:45.285Z,11.63
2019-04-10T21:22:49.356Z,11.57
2019-04-10T21:25:53.248Z,11.23
2019-04-10T21:28:57.981Z,10.90
2019-04-10T21:32:23.988Z,10.13
2019-04-10T21:35:32.806Z,10.67
2019-04-10T21:38:36.851Z,10.90
2019-04-10T21:41:41.246Z,11.23
2019-04-10T21:44:45.553Z,10.57
2019-04-10T21:47:50.268Z,10.83
2019-04-10T21:50:54.192Z,10.30
2019-04-10T21:53:58.330Z,11.10
2019-04-10T21:57:02.576Z,10.23
2019-04-10T22:00:07.909Z,9.93
2019-04-10T22:03:13.412Z,9.57
2019-04-10T22:06:39.965Z,9.53
2019-04-10T22:10:13.786Z,9.70
2019-04-10T22:13:17.713Z,9.60
2019-04-10T22:16:24.063Z,9.67
2019-04-10T22:19:28.471Z,8.80
2019-04-10T22:22:33.023Z,9.93
2019-04-10T22:25:37.437Z,9.13
2019-04-10T22:28:41.887Z,9.17
2019-04-10T22:31:46.548Z,8.90
2019-04-10T22:34:51.327Z,9.40
2019-04-10T22:37:55.267Z,8.97
2019-04-10T22:40:59.438Z,8.70
2019-04-10T22:44:05.380Z,8.73
2019-04-10T22:47:09.614Z,8.50
2019-04-10T22:50:13.751Z,8.60
2019-04-10T22:53:17.739Z,8.20
2019-04-10T22:56:23.110Z,8.23
2019-04-10T22:59:28.488Z,8.20
2019-04-10T23:02:32.377Z,7.43
2019-04-10T23:05:36.565Z,8.03
2019-04-10T23:08:40.420Z,7.47
2019-04-10T23:11:46.544Z,7.27
2019-04-10T23:14:51.157Z,7.20
2019-04-10T23:17:55.137Z,7.30
2019-04-10T23:20:58.985Z,6.97
2019-04-10T23:24:03.406Z,6.90
2019-04-10T23:27:07.549Z,7.27
2019-04-10T23:30:17.019Z,7.57
2019-04-10T23:33:22.499Z,7.13
2019-04-10T23:36:26.549Z,6.80
2019-04-10T23:39:30.511Z,7.17
2019-04-10T23:42:35.785Z,7.20
2019-04-10T23:45:40.059Z,6.53
2019-04-10T23:48:44.703Z,6.77
2019-04-10T23:51:49.554Z,6.87
2019-04-10T23:54:54.114Z,6.07
2019-04-10T23:57:58.541Z,6.93
